createdAt,value
2022-09-28T00:00:18.547Z,9.23
2022-09-28T00:04:21.360Z,9.27
2022-09-28T00:08:23.422Z,9.25
2022-09-28T00:12:25.460Z,9.23
2022-09-28T00:16:34.301Z,9.21
2022-09-28T00:20:37.664Z,9.24
2022-09-28T00:24:39.664Z,9.29
2022-09-28T00:28:41.660Z,9.33
2022-09-28T00:32:43.700Z,9.37
2022-09-28T00:36:46.982Z,9.43
2022-09-28T00:40:49.181Z,9.41
2022-09-28T00:44:55.547Z,9.47
2022-09-28T00:49:03.176Z,9.52
2022-09-28T00:53:11.688Z,9.55
2022-09-28T00:57:14.990Z,9.55
2022-09-28T01:01:17.255Z,9.54
2022-09-28T01:05:20.773Z,9.53
2022-09-28T01:09:25.008Z,9.50
2022-09-28T01:13:28.420Z,9.45
2022-09-28T01:17:44.810Z,9.46
2022-09-28T01:21:54.062Z,9.48
2022-09-28T01:26:24.003Z,9.53
2022-09-28T01:30:26.403Z,9.57
2022-09-28T01:34:37.414Z,9.60
2022-09-28T01:38:55.744Z,9.60
2022-09-28T01:43:06.036Z,9.64
2022-09-28T01:47:12.387Z,9.69
2022-09-28T01:51:21.948Z,9.66
2022-09-28T01:55:33.670Z,9.70
2022-09-28T01:59:41.776Z,9.70
2022-09-28T02:03:48.653Z,9.68
2022-09-28T02:08:01.179Z,9.71
2022-09-28T02:12:10.038Z,9.72
2022-09-28T02:16:34.722Z,9.74
2022-09-28T02:20:41.075Z,9.73
2022-09-28T02:24:53.630Z,9.77
2022-09-28T02:28:59.641Z,9.82
2022-09-28T02:33:25.329Z,9.80
2022-09-28T02:37:28.181Z,9.79
2022-09-28T02:42:19.501Z,9.83
2022-09-28T02:46:32.746Z,9.88
2022-09-28T02:51:11.471Z,9.89
2022-09-28T02:55:28.837Z,9.86
2022-09-28T02:59:57.692Z,9.83
2022-09-28T03:04:05.665Z,9.79
2022-09-28T03:08:19.104Z,9.77
2022-09-28T03:12:24.360Z,9.78
2022-09-28T03:16:27.566Z,9.79
2022-09-28T03:20:32.226Z,9.81
2022-09-28T03:24:34.408Z,9.81
2022-09-28T03:28:37.246Z,9.76
2022-09-28T03:32:40.479Z,9.78
2022-09-28T03:36:43.155Z,9.72
2022-09-28T03:40:53.781Z,9.66
2022-09-28T03:44:56.765Z,9.64
2022-09-28T03:48:59.275Z,9.57
2022-09-28T03:53:04.538Z,9.52
2022-09-28T03:57:06.868Z,9.46
2022-09-28T04:01:16.497Z,9.40
2022-09-28T04:05:20.482Z,9.41
2022-09-28T04:09:23.112Z,9.34
2022-09-28T04:13:26.124Z,9.35
2022-09-28T04:17:28.166Z,9.40
2022-09-28T04:21:31.205Z,9.44
2022-09-28T04:25:39.618Z,9.28
2022-09-28T04:29:43.040Z,9.15
2022-09-28T04:33:45.871Z,9.06
2022-09-28T04:37:47.999Z,9.06
2022-09-28T04:41:50.407Z,9.09
2022-09-28T04:45:52.549Z,9.12
2022-09-28T04:49:56.891Z,9.14
2022-09-28T04:54:07.536Z,9.17
2022-09-28T04:58:09.511Z,9.19
2022-09-28T05:02:13.844Z,9.22
2022-09-28T05:06:35.804Z,9.20
2022-09-28T05:10:40.933Z,9.17
2022-09-28T05:14:42.935Z,9.17
2022-09-28T05:18:45.756Z,9.16
2022-09-28T05:22:47.878Z,9.24
2022-09-28T05:26:50.019Z,9.21
2022-09-28T05:30:52.458Z,9.22
2022-09-28T05:35:17.845Z,9.22
2022-09-28T05:39:21.754Z,9.15
2022-09-28T05:43:23.875Z,9.13
2022-09-28T05:47:27.128Z,9.17
2022-09-28T05:51:29.879Z,9.35
2022-09-28T05:55:33.147Z,9.78
2022-09-28T05:59:36.203Z,9.69
2022-09-28T06:03:38.359Z,9.53
2022-09-28T06:07:40.484Z,9.44
2022-09-28T06:11:42.721Z,9.38
2022-09-28T06:15:53.617Z,9.32
2022-09-28T06:19:56.101Z,9.34
2022-09-28T06:24:01.944Z,9.38
2022-09-28T06:28:06.789Z,9.35
2022-09-28T06:32:08.903Z,9.30
2022-09-28T06:36:13.637Z,9.38
2022-09-28T06:40:15.894Z,9.56
2022-09-28T06:44:18.173Z,9.81
2022-09-28T06:48:53.117Z,10.24
2022-09-28T06:53:30.226Z,10.25
2022-09-28T06:58:04.790Z,10.27
2022-09-28T07:02:10.700Z,10.20
2022-09-28T07:06:33.175Z,10.11
2022-09-28T07:10:58.263Z,9.98
2022-09-28T07:15:16.614Z,9.94
2022-09-28T07:19:19.135Z,9.87
2022-09-28T07:23:21.187Z,9.90
2022-09-28T07:27:55.423Z,10.18
2022-09-28T07:32:08.940Z,10.53
2022-09-28T07:36:35.051Z,10.57
2022-09-28T07:40:55.981Z,10.81
2022-09-28T07:44:58.499Z,11.23
2022-09-28T07:49:00.885Z,11.40
2022-09-28T07:53:09.228Z,11.74
2022-09-28T07:57:28.835Z,11.69
2022-09-28T08:01:49.388Z,11.31
2022-09-28T08:05:57.092Z,11.09
2022-09-28T08:09:59.283Z,11.02
2022-09-28T08:14:21.445Z,10.98
2022-09-28T08:18:55.785Z,11.06
2022-09-28T08:23:04.130Z,11.19
2022-09-28T08:27:07.681Z,11.33
2022-09-28T08:31:10.784Z,11.40
2022-09-28T08:35:46.676Z,11.35
2022-09-28T08:40:13.536Z,11.43
2022-09-28T08:49:24.220Z,11.53
2022-09-28T08:53:45.877Z,11.57
2022-09-28T08:58:17.315Z,11.66
2022-09-28T09:02:25.386Z,12.00
2022-09-28T09:07:11.075Z,12.03
2022-09-28T09:11:23.278Z,12.22
2022-09-28T09:15:43.631Z,12.46
2022-09-28T09:20:01.240Z,12.43
2022-09-28T09:24:31.186Z,12.47
2022-09-28T09:28:35.213Z,12.91
2022-09-28T09:33:00.646Z,12.79
2022-09-28T09:37:13.455Z,12.44
2022-09-28T09:42:28.121Z,12.25
2022-09-28T09:46:58.761Z,12.29
2022-09-28T09:51:28.659Z,12.60
2022-09-28T09:55:44.357Z,12.67
2022-09-28T10:00:01.815Z,12.66
2022-09-28T10:04:22.229Z,12.69
2022-09-28T10:08:26.902Z,12.91
2022-09-28T10:12:30.977Z,13.21
2022-09-28T10:16:35.787Z,13.29
2022-09-28T10:20:44.882Z,13.49
2022-09-28T10:24:57.370Z,13.82
2022-09-28T10:29:05.388Z,13.85
2022-09-28T10:33:28.944Z,13.76
2022-09-28T10:37:31.821Z,13.55
2022-09-28T10:41:51.685Z,13.26
2022-09-28T10:46:03.423Z,13.31
2022-09-28T10:50:21.025Z,13.24
2022-09-28T10:54:26.690Z,13.15
2022-09-28T10:58:40.401Z,13.17
2022-09-28T11:02:45.812Z,13.39
2022-09-28T11:11:13.055Z,13.95
2022-09-28T11:15:28.828Z,14.02
2022-09-28T11:19:31.734Z,13.96
2022-09-28T11:23:33.855Z,13.80
2022-09-28T11:27:52.073Z,13.44
2022-09-28T11:32:04.126Z,13.16
2022-09-28T11:36:12.929Z,13.16
2022-09-28T11:40:43.445Z,13.20
2022-09-28T11:44:47.873Z,13.41
2022-09-28T11:49:20.892Z,13.59
2022-09-28T11:53:37.420Z,13.85
2022-09-28T11:57:43.892Z,13.99
2022-09-28T12:01:59.919Z,13.96
2022-09-28T12:06:16.051Z,14.08
2022-09-28T12:10:39.401Z,14.23
2022-09-28T12:14:45.654Z,14.20
2022-09-28T12:19:05.418Z,14.26
2022-09-28T12:23:14.581Z,14.49
2022-09-28T12:27:23.723Z,14.43
2022-09-28T12:31:34.296Z,14.39
2022-09-28T12:35:51.010Z,14.78
2022-09-28T12:40:30.121Z,14.77
2022-09-28T12:45:02.123Z,14.99
2022-09-28T12:54:04.541Z,15.04
2022-09-28T12:58:24.569Z,14.92
2022-09-28T13:03:14.961Z,14.67
2022-09-28T13:07:28.844Z,14.48
2022-09-28T13:11:31.923Z,14.37
2022-09-28T13:15:43.320Z,14.23
2022-09-28T13:19:57.729Z,14.19
2022-09-28T13:24:20.780Z,14.25
2022-09-28T13:28:28.239Z,14.22
2022-09-28T13:32:33.264Z,14.14
2022-09-28T13:36:37.058Z,14.07
2022-09-28T13:41:03.880Z,14.05
2022-09-28T13:45:21.070Z,14.27
2022-09-28T13:49:38.267Z,14.60
2022-09-28T13:53:57.138Z,14.66
2022-09-28T13:58:40.825Z,14.73
2022-09-28T14:02:54.041Z,14.75
2022-09-28T14:07:10.076Z,14.83
2022-09-28T14:11:37.696Z,14.85
2022-09-28T14:15:43.893Z,14.83
2022-09-28T14:20:01.000Z,14.71
2022-09-28T14:24:12.156Z,14.49
2022-09-28T14:28:24.366Z,14.31
2022-09-28T14:32:37.010Z,14.31
2022-09-28T14:37:06.477Z,14.33
2022-09-28T14:41:31.217Z,14.19
2022-09-28T14:45:36.488Z,14.05
2022-09-28T14:49:47.619Z,13.95
2022-09-28T14:53:51.079Z,13.96
2022-09-28T14:57:57.172Z,13.98
2022-09-28T15:02:06.160Z,13.96
2022-09-28T15:06:16.087Z,13.94
2022-09-28T15:10:31.259Z,13.97
2022-09-28T15:14:42.054Z,14.10
2022-09-28T15:19:05.476Z,14.14
2022-09-28T15:23:44.171Z,14.09
2022-09-28T15:27:52.561Z,14.02
2022-09-28T15:31:54.877Z,13.92
2022-09-28T15:36:05.618Z,13.86
2022-09-28T15:40:15.385Z,13.68
2022-09-28T15:44:29.024Z,13.65
2022-09-28T15:48:51.914Z,13.65
2022-09-28T15:53:00.652Z,13.82
2022-09-28T15:57:03.333Z,13.95
2022-09-28T16:01:47.488Z,13.91
2022-09-28T16:06:11.693Z,13.88
2022-09-28T16:10:13.686Z,13.76
2022-09-28T16:14:24.500Z,13.62
2022-09-28T16:18:30.775Z,13.51
2022-09-28T16:22:32.889Z,13.43
2022-09-28T16:26:38.888Z,13.27
2022-09-28T16:31:00.096Z,13.13
2022-09-28T16:35:18.701Z,13.09
2022-09-28T16:39:21.772Z,13.01
2022-09-28T16:43:36.535Z,12.80
2022-09-28T16:47:39.474Z,12.63
2022-09-28T16:51:41.469Z,12.54
2022-09-28T16:55:44.411Z,12.46
2022-09-28T16:59:46.353Z,12.46
2022-09-28T17:03:50.079Z,12.56
2022-09-28T17:08:04.008Z,12.61
2022-09-28T17:12:18.092Z,12.52
2022-09-28T17:16:32.584Z,12.46
2022-09-28T17:20:48.961Z,12.47
2022-09-28T17:24:50.937Z,12.46
2022-09-28T17:28:53.215Z,12.40
2022-09-28T17:32:55.321Z,12.34
2022-09-28T17:36:57.371Z,12.33
2022-09-28T17:40:59.486Z,12.28
2022-09-28T17:45:01.528Z,12.20
2022-09-28T17:49:05.367Z,12.12
2022-09-28T17:53:07.454Z,12.09
2022-09-28T17:57:10.201Z,12.06
2022-09-28T18:01:12.327Z,12.05
2022-09-28T18:05:14.843Z,12.03
2022-09-28T18:09:24.658Z,11.99
2022-09-28T18:13:26.667Z,11.97
2022-09-28T18:17:28.668Z,11.95
2022-09-28T18:21:33.874Z,11.91
2022-09-28T18:25:39.613Z,11.89
2022-09-28T18:29:41.614Z,11.91
2022-09-28T18:33:43.631Z,11.90
2022-09-28T18:37:45.626Z,11.88
2022-09-28T18:41:47.768Z,11.85
2022-09-28T18:45:49.773Z,11.79
2022-09-28T18:49:51.802Z,11.70
2022-09-28T18:53:53.975Z,11.60
2022-09-28T18:57:56.032Z,11.55
2022-09-28T19:02:01.289Z,11.53
2022-09-28T19:06:03.786Z,11.52
2022-09-28T19:10:06.419Z,11.40
2022-09-28T19:14:11.013Z,11.41
2022-09-28T19:18:12.998Z,11.37
2022-09-28T19:22:14.984Z,11.23
2022-09-28T19:26:22.907Z,11.28
2022-09-28T19:30:24.930Z,11.25
2022-09-28T19:34:29.956Z,11.21
2022-09-28T19:38:34.321Z,11.18
2022-09-28T19:42:36.346Z,11.15
2022-09-28T19:46:39.967Z,11.18
2022-09-28T19:50:42.017Z,11.16
2022-09-28T19:54:54.345Z,11.16
2022-09-28T19:58:57.016Z,11.10
2022-09-28T20:02:59.065Z,11.05
2022-09-28T20:07:01.733Z,10.98
2022-09-28T20:11:03.914Z,10.95
2022-09-28T20:15:07.838Z,10.93
2022-09-28T20:19:10.048Z,10.90
2022-09-28T20:23:12.118Z,10.78
2022-09-28T20:27:14.114Z,10.56
2022-09-28T20:31:19.911Z,10.31
2022-09-28T20:35:32.224Z,10.18
2022-09-28T20:39:35.916Z,10.10
2022-09-28T20:43:38.539Z,10.06
2022-09-28T20:47:40.557Z,10.03
2022-09-28T20:51:42.580Z,9.97
2022-09-28T20:55:44.559Z,9.94
2022-09-28T20:59:52.171Z,9.89
2022-09-28T21:03:59.097Z,9.95
2022-09-28T21:08:01.415Z,9.98
2022-09-28T21:12:04.986Z,10.00
2022-09-28T21:16:07.191Z,10.06
2022-09-28T21:20:09.458Z,10.06
2022-09-28T21:24:11.640Z,10.07
2022-09-28T21:28:17.134Z,10.03
2022-09-28T21:32:19.160Z,9.98
2022-09-28T21:36:21.189Z,9.92
2022-09-28T21:40:23.305Z,9.90
2022-09-28T21:44:25.418Z,9.84
2022-09-28T21:48:28.511Z,9.82
2022-09-28T21:52:30.504Z,9.80
2022-09-28T21:56:32.637Z,9.75
2022-09-28T22:00:34.663Z,9.67
2022-09-28T22:04:36.675Z,9.59
2022-09-28T22:08:39.383Z,9.43
2022-09-28T22:12:41.497Z,9.17
2022-09-28T22:16:43.524Z,9.07
2022-09-28T22:20:45.532Z,9.15
2022-09-28T22:24:47.521Z,9.20
2022-09-28T22:28:55.054Z,8.99
2022-09-28T22:32:57.053Z,8.85
2022-09-28T22:36:59.391Z,8.81
2022-09-28T22:41:03.685Z,8.72
2022-09-28T22:45:06.416Z,8.60
2022-09-28T22:49:10.306Z,8.49
2022-09-28T22:53:14.029Z,8.47
2022-09-28T22:57:16.019Z,8.41
2022-09-28T23:01:21.175Z,8.39
2022-09-28T23:05:23.573Z,8.40
2022-09-28T23:09:25.639Z,8.42
2022-09-28T23:13:28.764Z,8.43
2022-09-28T23:17:30.756Z,8.48
2022-09-28T23:21:32.786Z,8.44
2022-09-28T23:25:34.800Z,8.49
2022-09-28T23:29:38.866Z,8.59
2022-09-28T23:33:41.093Z,8.63
2022-09-28T23:37:43.100Z,8.64
2022-09-28T23:41:45.091Z,8.60
2022-09-28T23:45:47.284Z,8.65
2022-09-28T23:49:49.312Z,8.69
2022-09-28T23:53:51.351Z,8.72
2022-09-28T23:57:55.547Z,8.76
